Time;durP1;ratioP1;P1;durP2;ratioP2;P2;SDS_P1;SDS_P2;PMS_P1;PMS_P2;Temp;Humidity;BMP_temperature;BMP_pressure;BME280_temperature;BME280_humidity;BME280_pressure;Samples;Min_cycle;Max_cycle;Signal;HPM_P1;HPM_P2
2023/08/01 00:01:52;;;;;;;5.90;2.40;;;;;;;;;;110304;1256;22689;-75
2023/08/01 00:04:19;;;;;;;7.50;2.70;;;;;;;;;;110261;1278;22151;-75
2023/08/01 00:06:47;;;;;;;5.70;2.20;;;;;;;;;;110382;1278;22752;-76
2023/08/01 00:09:14;;;;;;;7.00;2.70;;;;;;;;;;110273;1278;22051;-76
2023/08/01 00:11:41;;;;;;;6.30;2.60;;;;;;;;;;110274;1260;22109;-76
2023/08/01 00:14:09;;;;;;;7.40;2.60;;;;;;;;;;110264;1276;22100;-75
2023/08/01 00:16:36;;;;;;;6.60;2.30;;;;;;;;;;110256;1278;22184;-75
2023/08/01 00:19:04;;;;;;;9.40;2.60;;;;;;;;;;110260;1278;22118;-76
2023/08/01 00:21:33;;;;;;;7.10;2.70;;;;;;;;;;110394;1259;22206;-75
2023/08/01 00:24:00;;;;;;;7.80;2.70;;;;;;;;;;110406;1278;22127;-75
2023/08/01 00:26:28;;;;;;;8.10;2.90;;;;;;;;;;110399;1278;22168;-75
2023/08/01 00:28:56;;;;;;;6.60;2.50;;;;;;;;;;110268;1278;22892;-76
2023/08/01 00:31:24;;;;;;;7.60;3.00;;;;;;;;;;110482;1259;22930;-76
2023/08/01 00:33:52;;;;;;;6.30;2.50;;;;;;;;;;110288;1278;22088;-76
2023/08/01 00:36:20;;;;;;;7.00;2.60;;;;;;;;;;110400;1278;22105;-76
2023/08/01 00:38:49;;;;;;;6.00;2.40;;;;;;;;;;110238;1279;22184;-76
2023/08/01 00:41:18;;;;;;;5.90;2.40;;;;;;;;;;110217;1259;22129;-76
2023/08/01 00:43:47;;;;;;;6.80;2.30;;;;;;;;;;110153;1279;22070;-75
2023/08/01 00:46:15;;;;;;;9.00;2.40;;;;;;;;;;110199;1279;22692;-76
2023/08/01 00:48:45;;;;;;;7.20;2.60;;;;;;;;;;110128;1279;22107;-76
2023/08/01 00:51:17;;;;;;;6.70;2.50;;;;;;;;;;110209;1255;22868;-76
2023/08/01 00:53:46;;;;;;;6.70;2.10;;;;;;;;;;110333;1279;21988;-75
2023/08/01 00:56:15;;;;;;;6.20;2.00;;;;;;;;;;110198;1279;22184;-76
2023/08/01 00:58:47;;;;;;;6.60;2.50;;;;;;;;;;110120;1279;22080;-75
2023/08/01 01:01:15;;;;;;;7.10;2.70;;;;;;;;;;110216;1256;22353;-76
2023/08/01 01:03:45;;;;;;;7.20;2.50;;;;;;;;;;110089;1279;22899;-75
2023/08/01 01:06:31;;;;;;;6.60;2.40;;;;;;;;;;110200;1279;22080;-76
2023/08/01 01:09:00;;;;;;;6.90;2.60;;;;;;;;;;110189;1278;22760;-76
2023/08/01 01:11:29;;;;;;;6.50;2.40;;;;;;;;;;110193;1255;22371;-76
2023/08/01 01:13:59;;;;;;;6.70;2.50;;;;;;;;;;110076;1279;23165;-76
2023/08/01 01:16:28;;;;;;;6.40;2.50;;;;;;;;;;110313;1279;22858;-76
2023/08/01 01:18:57;;;;;;;7.20;2.90;;;;;;;;;;110057;1279;22116;-76
2023/08/01 01:21:26;;;;;;;7.20;2.30;;;;;;;;;;110197;1279;22097;-75
2023/08/01 01:24:14;;;;;;;6.20;2.30;;;;;;;;;;110405;1263;22117;-76
2023/08/01 01:27:04;;;;;;;6.70;2.50;;;;;;;;;;110174;1279;22797;-76
2023/08/01 01:29:34;;;;;;;7.90;3.00;;;;;;;;;;110228;1278;21969;-76
2023/08/01 01:32:04;;;;;;;7.40;2.70;;;;;;;;;;110189;1278;22121;-76
2023/08/01 01:34:32;;;;;;;7.30;2.40;;;;;;;;;;110440;1260;22290;-76
2023/08/01 01:43:55;;;;;;;7.40;3.00;;;;;;;;;;103980;1292;544865;-82
2023/08/01 01:46:22;;;;;;;7.50;2.80;;;;;;;;;;106300;1286;25518;-78
2023/08/01 01:48:49;;;;;;;9.30;3.20;;;;;;;;;;106376;1286;22569;-76
2023/08/01 01:51:16;;;;;;;7.10;2.70;;;;;;;;;;106072;1286;22510;-76
2023/08/01 01:53:44;;;;;;;6.90;2.70;;;;;;;;;;106414;1285;22631;-83
2023/08/01 01:56:11;;;;;;;8.30;2.50;;;;;;;;;;106329;1287;24206;-80
2023/08/01 01:58:38;;;;;;;6.70;2.80;;;;;;;;;;103664;1285;3294343;-76
2023/08/01 02:01:04;;;;;;;8.40;2.80;;;;;;;;;;106317;1285;22530;-80
2023/08/01 02:03:31;;;;;;;8.60;2.80;;;;;;;;;;107213;1253;24338;-81
2023/08/01 02:05:59;;;;;;;8.70;2.80;;;;;;;;;;107291;1272;24249;-77
2023/08/01 02:08:26;;;;;;;6.40;2.80;;;;;;;;;;107178;1273;25261;-80
2023/08/01 02:10:53;;;;;;;8.40;3.00;;;;;;;;;;107212;1273;22517;-78
2023/08/01 02:13:19;;;;;;;7.40;3.10;;;;;;;;;;107032;1250;25221;-77
2023/08/01 02:15:46;;;;;;;6.50;2.90;;;;;;;;;;107130;1274;22473;-81
2023/08/01 02:18:13;;;;;;;6.60;3.00;;;;;;;;;;106902;1274;25322;-77
2023/08/01 02:20:39;;;;;;;6.70;2.90;;;;;;;;;;107165;1274;22559;-78
2023/08/01 02:23:06;;;;;;;7.60;2.80;;;;;;;;;;107092;1274;25198;-80
2023/08/01 02:25:38;;;;;;;5.80;2.80;;;;;;;;;;107164;1257;25332;-79
2023/08/01 02:28:05;;;;;;;8.20;3.40;;;;;;;;;;107142;1273;25340;-80
2023/08/01 02:30:32;;;;;;;8.20;2.90;;;;;;;;;;107150;1273;22557;-77
2023/08/01 02:32:58;;;;;;;7.70;3.00;;;;;;;;;;107186;1273;25322;-78
2023/08/01 02:35:26;;;;;;;7.30;3.10;;;;;;;;;;107094;1256;22540;-78
2023/08/01 02:37:53;;;;;;;6.60;2.80;;;;;;;;;;107069;1275;22524;-81
2023/08/01 02:40:19;;;;;;;8.20;3.20;;;;;;;;;;106895;1275;22652;-77
2023/08/01 02:42:46;;;;;;;6.70;2.90;;;;;;;;;;106910;1275;24205;-81
2023/08/01 02:45:13;;;;;;;7.60;3.00;;;;;;;;;;106961;1274;22535;-80
2023/08/01 02:47:39;;;;;;;7.60;3.00;;;;;;;;;;106971;1253;22523;-82
2023/08/01 02:50:06;;;;;;;7.50;2.80;;;;;;;;;;106908;1274;25404;-81
2023/08/01 02:52:33;;;;;;;6.80;2.90;;;;;;;;;;106931;1274;22621;-81
2023/08/01 02:55:00;;;;;;;8.40;3.20;;;;;;;;;;106977;1259;22526;-77
2023/08/01 02:57:26;;;;;;;6.60;3.00;;;;;;;;;;107016;1275;26768;-76
2023/08/01 02:59:53;;;;;;;7.60;3.10;;;;;;;;;;106731;1275;24717;-76
2023/08/01 03:02:20;;;;;;;6.90;3.00;;;;;;;;;;106793;1275;22533;-83
2023/08/01 03:04:47;;;;;;;8.70;3.30;;;;;;;;;;107020;1255;25230;-77
2023/08/01 03:07:13;;;;;;;8.60;2.90;;;;;;;;;;107104;1275;25350;-80
2023/08/01 03:09:42;;;;;;;7.90;3.20;;;;;;;;;;106939;1274;22527;-77
2023/08/01 03:12:09;;;;;;;7.00;3.00;;;;;;;;;;107066;1275;25349;-77
2023/08/01 03:14:36;;;;;;;7.10;2.60;;;;;;;;;;106882;1254;22517;-79
2023/08/01 03:17:03;;;;;;;6.90;3.00;;;;;;;;;;106886;1275;25275;-80
2023/08/01 03:19:29;;;;;;;7.00;2.70;;;;;;;;;;106920;1260;25246;-77
2023/08/01 03:21:57;;;;;;;6.80;3.00;;;;;;;;;;106872;1275;22520;-77
2023/08/01 03:24:24;;;;;;;7.10;2.90;;;;;;;;;;106871;1270;25590;-78
2023/08/01 03:26:51;;;;;;;6.90;3.00;;;;;;;;;;107034;1256;22588;-78
2023/08/01 03:29:17;;;;;;;8.00;3.10;;;;;;;;;;106991;1275;22500;-76
2023/08/01 03:31:44;;;;;;;7.70;3.10;;;;;;;;;;107106;1275;25315;-80
2023/08/01 03:34:12;;;;;;;7.70;3.20;;;;;;;;;;107220;1275;22522;-77
2023/08/01 03:36:39;;;;;;;7.80;3.00;;;;;;;;;;106922;1270;25377;-76
2023/08/01 03:39:06;;;;;;;5.90;2.80;;;;;;;;;;106963;1275;25326;-76
2023/08/01 03:41:32;;;;;;;6.40;2.80;;;;;;;;;;106893;1275;24380;-78
2023/08/01 03:43:59;;;;;;;7.80;3.20;;;;;;;;;;106933;1275;25420;-77
2023/08/01 03:46:26;;;;;;;7.50;3.10;;;;;;;;;;106892;1262;22520;-81
2023/08/01 03:48:52;;;;;;;7.80;3.20;;;;;;;;;;106918;1275;22517;-79
2023/08/01 03:51:19;;;;;;;8.70;3.40;;;;;;;;;;107115;1275;22651;-83
2023/08/01 03:53:47;;;;;;;7.90;3.40;;;;;;;;;;107121;1275;25283;-80
2023/08/01 03:56:14;;;;;;;8.10;2.70;;;;;;;;;;106916;1259;25609;-81
2023/08/01 03:58:41;;;;;;;9.40;2.90;;;;;;;;;;106863;1275;22999;-78
2023/08/01 04:01:11;;;;;;;7.30;2.70;;;;;;;;;;107081;1275;25474;-76
2023/08/01 04:03:38;;;;;;;7.00;2.90;;;;;;;;;;106884;1275;24195;-81
2023/08/01 04:06:05;;;;;;;8.50;3.40;;;;;;;;;;107095;1254;22513;-83
2023/08/01 04:08:32;;;;;;;6.90;3.00;;;;;;;;;;106872;1275;22559;-83
2023/08/01 04:10:59;;;;;;;7.40;3.10;;;;;;;;;;106911;1275;22529;-77
2023/08/01 04:13:26;;;;;;;7.80;3.00;;;;;;;;;;106927;1275;22528;-77
2023/08/01 04:15:52;;;;;;;7.60;2.90;;;;;;;;;;107102;1265;25214;-79
2023/08/01 04:18:19;;;;;;;7.20;2.90;;;;;;;;;;107034;1275;22650;-78
2023/08/01 04:20:46;;;;;;;7.00;2.90;;;;;;;;;;106888;1275;22513;-85
2023/08/01 04:23:13;;;;;;;6.90;2.80;;;;;;;;;;106868;1275;22536;-84
2023/08/01 04:25:40;;;;;;;7.00;3.20;;;;;;;;;;106951;1275;25396;-75
2023/08/01 04:28:07;;;;;;;8.10;3.00;;;;;;;;;;106861;1272;22598;-84
2023/08/01 04:30:33;;;;;;;7.40;3.30;;;;;;;;;;106984;1275;24331;-81
2023/08/01 04:33:00;;;;;;;7.80;3.10;;;;;;;;;;106889;1275;25668;-76
2023/08/01 04:35:27;;;;;;;8.50;3.00;;;;;;;;;;107104;1275;24246;-77
2023/08/01 04:37:54;;;;;;;7.30;2.70;;;;;;;;;;106910;1257;22541;-84
2023/08/01 04:40:21;;;;;;;6.70;2.60;;;;;;;;;;106934;1275;24976;-77
2023/08/01 04:42:47;;;;;;;8.30;3.00;;;;;;;;;;107078;1275;22481;-77
2023/08/01 04:45:14;;;;;;;7.10;3.00;;;;;;;;;;106932;1275;25557;-80
2023/08/01 04:47:41;;;;;;;9.10;3.00;;;;;;;;;;106968;1275;22520;-77
2023/08/01 04:50:07;;;;;;;6.40;2.50;;;;;;;;;;106902;1275;22618;-83
2023/08/01 04:52:34;;;;;;;7.50;2.80;;;;;;;;;;107097;1275;22520;-79
2023/08/01 04:55:01;;;;;;;6.10;2.50;;;;;;;;;;107093;1275;22520;-77
2023/08/01 04:57:28;;;;;;;6.20;2.70;;;;;;;;;;106970;1260;22541;-83
2023/08/01 04:59:55;;;;;;;7.10;2.80;;;;;;;;;;106896;1275;22667;-80
2023/08/01 05:02:21;;;;;;;7.50;2.70;;;;;;;;;;106890;1275;22727;-77
2023/08/01 05:04:48;;;;;;;6.90;2.50;;;;;;;;;;106956;1275;22520;-76
2023/08/01 05:07:15;;;;;;;6.00;2.80;;;;;;;;;;106907;1257;22495;-79
2023/08/01 05:09:42;;;;;;;6.90;2.40;;;;;;;;;;106943;1275;24257;-77
2023/08/01 05:12:09;;;;;;;7.60;2.90;;;;;;;;;;106929;1275;22570;-82
2023/08/01 05:14:35;;;;;;;8.30;2.90;;;;;;;;;;107183;1275;24244;-81
2023/08/01 05:17:02;;;;;;;7.50;2.70;;;;;;;;;;107090;1254;22524;-82
2023/08/01 05:19:29;;;;;;;7.80;2.90;;;;;;;;;;106922;1275;24251;-82
2023/08/01 05:21:56;;;;;;;6.50;2.80;;;;;;;;;;107044;1275;22754;-81
2023/08/01 05:24:23;;;;;;;8.10;2.80;;;;;;;;;;106861;1275;24205;-79
2023/08/01 05:26:49;;;;;;;7.90;3.00;;;;;;;;;;106997;1275;22520;-76
2023/08/01 05:29:16;;;;;;;8.80;3.40;;;;;;;;;;106886;1259;24224;-81
2023/08/01 05:31:43;;;;;;;6.30;2.60;;;;;;;;;;107058;1275;24951;-79
2023/08/01 05:34:10;;;;;;;6.80;2.90;;;;;;;;;;107025;1275;25329;-79
2023/08/01 05:36:37;;;;;;;6.60;2.60;;;;;;;;;;107010;1275;22569;-84
2023/08/01 05:39:04;;;;;;;7.50;2.60;;;;;;;;;;106914;1275;22620;-79
2023/08/01 05:41:31;;;;;;;7.00;2.80;;;;;;;;;;106881;1275;25224;-78
2023/08/01 05:44:01;;;;;;;7.50;2.90;;;;;;;;;;106851;1275;23860;-78
2023/08/01 05:46:30;;;;;;;6.70;3.10;;;;;;;;;;106753;1260;22706;-78
2023/08/01 05:48:57;;;;;;;7.90;3.10;;;;;;;;;;106806;1256;25224;-82
2023/08/01 05:51:24;;;;;;;7.60;2.70;;;;;;;;;;106782;1275;22987;-77
2023/08/01 05:53:51;;;;;;;6.00;2.40;;;;;;;;;;106791;1275;24246;-76
2023/08/01 05:56:17;;;;;;;8.10;2.60;;;;;;;;;;107108;1275;24358;-81
2023/08/01 05:58:44;;;;;;;6.70;2.80;;;;;;;;;;106844;1259;22526;-83
2023/08/01 06:01:14;;;;;;;7.30;3.10;;;;;;;;;;106913;1275;22528;-77
2023/08/01 06:03:41;;;;;;;6.90;2.70;;;;;;;;;;107025;1275;22523;-76
2023/08/01 06:06:08;;;;;;;6.30;2.50;;;;;;;;;;106853;1275;25350;-81
2023/08/01 06:08:35;;;;;;;7.90;2.80;;;;;;;;;;106847;1264;22522;-80
2023/08/01 06:11:01;;;;;;;6.20;2.70;;;;;;;;;;106907;1275;22525;-79
2023/08/01 06:13:28;;;;;;;7.60;2.60;;;;;;;;;;107139;1252;24196;-83
2023/08/01 06:15:55;;;;;;;7.40;2.50;;;;;;;;;;106950;1275;24337;-77
2023/08/01 06:18:22;;;;;;;6.40;2.50;;;;;;;;;;106806;1253;22523;-83
2023/08/01 06:20:49;;;;;;;5.70;2.30;;;;;;;;;;106887;1275;22515;-77
2023/08/01 06:23:15;;;;;;;5.80;2.20;;;;;;;;;;106911;1275;25382;-81
2023/08/01 06:25:42;;;;;;;6.40;2.80;;;;;;;;;;106848;1275;24346;-79
2023/08/01 06:28:09;;;;;;;6.80;2.60;;;;;;;;;;106896;1275;22540;-76
2023/08/01 06:30:35;;;;;;;6.00;2.60;;;;;;;;;;106907;1275;22534;-76
2023/08/01 06:33:02;;;;;;;6.50;2.60;;;;;;;;;;107054;1275;22524;-76
2023/08/01 06:35:29;;;;;;;7.10;2.40;;;;;;;;;;107052;1275;22537;-76
2023/08/01 06:37:56;;;;;;;6.20;2.30;;;;;;;;;;106893;1267;25429;-77
2023/08/01 06:40:23;;;;;;;6.60;2.60;;;;;;;;;;107102;1256;25291;-76
2023/08/01 06:42:50;;;;;;;7.40;3.10;;;;;;;;;;106909;1275;22521;-79
2023/08/01 06:45:17;;;;;;;6.90;3.40;;;;;;;;;;106987;1275;22497;-83
2023/08/01 06:47:44;;;;;;;7.00;2.80;;;;;;;;;;106926;1269;22517;-81
2023/08/01 06:50:10;;;;;;;7.30;3.00;;;;;;;;;;107070;1256;22516;-80
2023/08/01 06:52:37;;;;;;;7.40;3.10;;;;;;;;;;106916;1275;24352;-84
2023/08/01 06:55:05;;;;;;;8.80;3.30;;;;;;;;;;106979;1275;22517;-81
2023/08/01 06:57:31;;;;;;;7.60;3.30;;;;;;;;;;107157;1275;23447;-77
2023/08/01 06:59:58;;;;;;;8.00;3.20;;;;;;;;;;106858;1259;25258;-78
2023/08/01 07:02:25;;;;;;;10.00;3.40;;;;;;;;;;106913;1276;22570;-80
2023/08/01 07:04:52;;;;;;;9.00;3.40;;;;;;;;;;106902;1276;22520;-76
2023/08/01 07:07:19;;;;;;;7.90;3.20;;;;;;;;;;106871;1276;24362;-85
2023/08/01 07:09:45;;;;;;;9.30;3.60;;;;;;;;;;106878;1259;22491;-83
2023/08/01 07:12:12;;;;;;;8.60;3.30;;;;;;;;;;107061;1275;22594;-77
2023/08/01 07:14:39;;;;;;;8.60;3.30;;;;;;;;;;107144;1272;22986;-83
2023/08/01 07:17:05;;;;;;;8.70;3.60;;;;;;;;;;107071;1275;22555;-77
2023/08/01 07:19:32;;;;;;;7.40;3.60;;;;;;;;;;106927;1267;23378;-81
2023/08/01 07:21:59;;;;;;;9.00;3.80;;;;;;;;;;106898;1275;25266;-81
2023/08/01 07:24:25;;;;;;;8.80;3.70;;;;;;;;;;107194;1275;24203;-77
2023/08/01 07:26:52;;;;;;;7.10;3.50;;;;;;;;;;107082;1275;25255;-79
2023/08/01 07:29:19;;;;;;;7.20;3.40;;;;;;;;;;106997;1275;22561;-76
2023/08/01 07:31:47;;;;;;;8.30;3.60;;;;;;;;;;107056;1256;25315;-76
2023/08/01 07:34:14;;;;;;;8.60;3.60;;;;;;;;;;107038;1275;25457;-77
2023/08/01 07:36:41;;;;;;;7.10;3.30;;;;;;;;;;107133;1275;22525;-78
2023/08/01 07:39:08;;;;;;;6.20;3.50;;;;;;;;;;107123;1275;24208;-79
2023/08/01 07:41:35;;;;;;;8.70;3.80;;;;;;;;;;106987;1275;22525;-78
2023/08/01 07:44:05;;;;;;;9.90;4.00;;;;;;;;;;107070;1275;22646;-77
2023/08/01 07:46:32;;;;;;;7.00;4.00;;;;;;;;;;106912;1275;22559;-80
2023/08/01 07:49:00;;;;;;;8.20;4.20;;;;;;;;;;106636;1275;22525;-83
2023/08/01 07:55:33;;;;;;;8.60;3.80;;;;;;;;;;103801;1304;544843;-81
2023/08/01 07:58:00;;;;;;;8.50;5.20;;;;;;;;;;105969;1288;22541;-78
2023/08/01 08:00:27;;;;;;;9.90;5.50;;;;;;;;;;106597;1279;22535;-80
2023/08/01 08:02:54;;;;;;;9.20;5.40;;;;;;;;;;110255;1279;21782;-75
2023/08/01 08:05:21;;;;;;;9.60;5.60;;;;;;;;;;110282;1260;22158;-77
2023/08/01 08:07:48;;;;;;;9.10;5.80;;;;;;;;;;110291;1279;22214;-77
2023/08/01 08:10:15;;;;;;;12.10;6.30;;;;;;;;;;108060;1276;3257985;-76
2023/08/01 08:12:42;;;;;;;8.20;5.10;;;;;;;;;;110437;1276;22094;-77
2023/08/01 08:15:09;;;;;;;11.70;4.70;;;;;;;;;;110537;1259;22157;-77
2023/08/01 08:17:36;;;;;;;9.80;4.80;;;;;;;;;;110464;1276;22171;-76
2023/08/01 08:20:06;;;;;;;9.20;4.70;;;;;;;;;;110570;1276;22089;-77
2023/08/01 08:22:36;;;;;;;8.60;4.60;;;;;;;;;;110442;1276;22334;-76
2023/08/01 08:25:03;;;;;;;9.10;4.70;;;;;;;;;;110289;1253;22029;-76
2023/08/01 08:27:30;;;;;;;7.70;4.30;;;;;;;;;;110570;1276;22342;-78
2023/08/01 08:29:57;;;;;;;9.60;4.20;;;;;;;;;;110368;1276;22094;-76
2023/08/01 08:32:23;;;;;;;9.30;4.00;;;;;;;;;;110533;1276;22140;-78
2023/08/01 08:34:50;;;;;;;7.90;3.50;;;;;;;;;;110442;1276;22990;-77
2023/08/01 08:37:20;;;;;;;8.10;3.40;;;;;;;;;;110465;1259;22145;-77
2023/08/01 08:39:47;;;;;;;9.80;3.70;;;;;;;;;;110336;1275;22127;-77
2023/08/01 08:42:17;;;;;;;7.60;3.40;;;;;;;;;;110426;1277;22080;-78
2023/08/01 08:44:48;;;;;;;11.50;3.70;;;;;;;;;;110326;1277;22806;-77
2023/08/01 08:47:16;;;;;;;11.00;3.90;;;;;;;;;;110573;1259;22100;-78
2023/08/01 08:49:44;;;;;;;10.40;3.90;;;;;;;;;;110445;1277;22104;-77
2023/08/01 08:52:11;;;;;;;10.50;4.30;;;;;;;;;;110315;1277;21825;-76
2023/08/01 08:54:38;;;;;;;7.40;3.40;;;;;;;;;;110437;1277;22105;-77
2023/08/01 08:57:09;;;;;;;15.20;3.90;;;;;;;;;;110282;1262;22098;-79
2023/08/01 08:59:36;;;;;;;12.10;3.40;;;;;;;;;;110342;1277;22123;-78
2023/08/01 09:02:04;;;;;;;11.50;3.70;;;;;;;;;;110442;1277;22127;-80
2023/08/01 09:04:33;;;;;;;9.10;3.50;;;;;;;;;;110267;1277;22245;-78
2023/08/01 09:07:07;;;;;;;18.10;4.00;;;;;;;;;;110496;1260;22813;-79
2023/08/01 09:09:34;;;;;;;15.40;3.80;;;;;;;;;;110452;1277;22127;-80
2023/08/01 09:12:01;;;;;;;10.50;3.70;;;;;;;;;;110176;1268;22774;-79
2023/08/01 09:14:29;;;;;;;9.70;3.70;;;;;;;;;;110435;1278;22183;-77
2023/08/01 09:16:55;;;;;;;6.20;3.30;;;;;;;;;;110440;1260;22085;-77
2023/08/01 09:19:24;;;;;;;7.20;3.00;;;;;;;;;;110305;1278;22101;-77
2023/08/01 09:21:51;;;;;;;7.80;3.20;;;;;;;;;;110328;1278;22074;-79
2023/08/01 09:24:19;;;;;;;7.60;2.20;;;;;;;;;;110202;1278;22118;-77
2023/08/01 09:26:46;;;;;;;7.30;2.60;;;;;;;;;;110310;1260;22124;-77
2023/08/01 09:29:13;;;;;;;8.50;2.70;;;;;;;;;;110330;1277;22115;-76
2023/08/01 09:31:41;;;;;;;6.20;2.50;;;;;;;;;;110425;1263;22148;-78
2023/08/01 09:34:22;;;;;;;9.30;2.50;;;;;;;;;;110193;1278;22097;-77
2023/08/01 09:36:50;;;;;;;6.80;2.30;;;;;;;;;;110350;1260;22115;-77
2023/08/01 09:39:18;;;;;;;9.10;2.60;;;;;;;;;;110279;1279;22115;-77
2023/08/01 09:41:45;;;;;;;9.50;2.40;;;;;;;;;;110285;1279;22082;-79
2023/08/01 09:44:15;;;;;;;17.80;3.20;;;;;;;;;;110230;1279;22740;-78
2023/08/01 09:46:43;;;;;;;9.00;2.30;;;;;;;;;;110175;1256;22158;-77
2023/08/01 09:49:10;;;;;;;8.20;2.10;;;;;;;;;;110214;1279;22097;-77
2023/08/01 09:51:48;;;;;;;7.10;2.10;;;;;;;;;;110143;1279;22131;-78
2023/08/01 09:54:20;;;;;;;8.20;2.20;;;;;;;;;;110281;1279;22114;-77
2023/08/01 09:56:49;;;;;;;8.50;2.30;;;;;;;;;;110279;1261;22126;-80
2023/08/01 09:59:19;;;;;;;10.10;2.40;;;;;;;;;;110283;1279;22247;-77
2023/08/01 10:01:47;;;;;;;11.30;2.40;;;;;;;;;;110279;1279;22111;-80
2023/08/01 10:04:36;;;;;;;10.10;2.60;;;;;;;;;;110159;1279;22294;-76
2023/08/01 10:07:11;;;;;;;17.80;3.00;;;;;;;;;;110186;1258;22164;-77
2023/08/01 10:09:39;;;;;;;8.30;2.10;;;;;;;;;;110262;1279;22713;-77
2023/08/01 10:12:26;;;;;;;5.80;2.30;;;;;;;;;;110286;1275;22131;-77
2023/08/01 10:14:54;;;;;;;7.10;2.90;;;;;;;;;;110268;1279;22155;-78
2023/08/01 10:17:22;;;;;;;5.80;2.60;;;;;;;;;;110291;1258;22314;-77
2023/08/01 10:19:55;;;;;;;6.30;3.00;;;;;;;;;;110302;1279;22743;-77
2023/08/01 10:22:23;;;;;;;7.90;3.50;;;;;;;;;;110254;1279;22146;-77
2023/08/01 10:24:51;;;;;;;8.50;3.80;;;;;;;;;;110154;1279;22814;-77
2023/08/01 10:27:21;;;;;;;7.50;3.50;;;;;;;;;;110218;1267;22183;-79
2023/08/01 10:29:58;;;;;;;20.20;4.60;;;;;;;;;;110150;1279;21958;-77
2023/08/01 10:32:32;;;;;;;10.70;3.80;;;;;;;;;;110119;1279;22291;-78
2023/08/01 10:34:59;;;;;;;8.80;3.60;;;;;;;;;;110294;1279;22123;-79
2023/08/01 10:37:26;;;;;;;7.00;3.30;;;;;;;;;;110122;1256;23122;-78
2023/08/01 10:40:02;;;;;;;5.50;3.10;;;;;;;;;;110093;1280;22133;-77
2023/08/01 10:42:39;;;;;;;6.40;3.50;;;;;;;;;;110115;1279;22752;-77
2023/08/01 10:45:06;;;;;;;9.20;3.20;;;;;;;;;;110132;1279;22133;-78
2023/08/01 10:47:33;;;;;;;6.30;2.80;;;;;;;;;;110103;1280;22356;-80
2023/08/01 10:50:00;;;;;;;7.30;2.80;;;;;;;;;;110141;1262;22173;-78
2023/08/01 10:52:27;;;;;;;8.70;2.60;;;;;;;;;;110126;1279;22077;-79
2023/08/01 10:55:01;;;;;;;7.90;2.60;;;;;;;;;;110208;1279;22140;-79
2023/08/01 10:57:30;;;;;;;11.50;2.40;;;;;;;;;;110143;1280;22094;-79
2023/08/01 10:59:57;;;;;;;6.70;2.20;;;;;;;;;;110159;1273;22310;-77
2023/08/01 11:02:26;;;;;;;5.80;2.40;;;;;;;;;;110152;1279;22105;-78
2023/08/01 11:05:01;;;;;;;7.40;2.30;;;;;;;;;;110219;1279;22736;-79
2023/08/01 11:07:28;;;;;;;7.30;2.10;;;;;;;;;;110153;1280;22101;-77
2023/08/01 11:10:21;;;;;;;5.20;1.80;;;;;;;;;;110335;1272;22143;-77
2023/08/01 11:12:48;;;;;;;9.30;2.20;;;;;;;;;;110133;1279;22108;-81
2023/08/01 11:15:17;;;;;;;6.50;1.50;;;;;;;;;;110127;1279;22114;-82
2023/08/01 11:17:51;;;;;;;7.00;1.80;;;;;;;;;;110166;1269;22091;-78
2023/08/01 11:20:22;;;;;;;4.90;1.80;;;;;;;;;;110467;1263;22121;-76
2023/08/01 11:22:53;;;;;;;3.50;1.60;;;;;;;;;;110070;1279;23017;-78
2023/08/01 11:25:39;;;;;;;5.70;1.70;;;;;;;;;;110173;1278;22297;-76
2023/08/01 11:28:14;;;;;;;5.60;1.70;;;;;;;;;;110145;1279;22378;-78
2023/08/01 11:30:45;;;;;;;4.90;1.80;;;;;;;;;;110533;1259;22132;-77
2023/08/01 11:33:21;;;;;;;3.20;1.50;;;;;;;;;;110146;1279;22062;-79
2023/08/01 11:35:59;;;;;;;4.50;1.70;;;;;;;;;;110149;1279;22112;-78
2023/08/01 11:38:30;;;;;;;4.90;1.80;;;;;;;;;;110072;1281;22131;-79
2023/08/01 11:40:58;;;;;;;3.50;1.50;;;;;;;;;;110500;1262;22830;-78
2023/08/01 11:43:24;;;;;;;4.30;1.60;;;;;;;;;;110063;1281;22088;-79
2023/08/01 11:45:57;;;;;;;5.40;1.80;;;;;;;;;;110096;1281;22150;-78
2023/08/01 11:48:24;;;;;;;4.70;2.00;;;;;;;;;;110048;1281;22854;-78
2023/08/01 11:51:00;;;;;;;11.50;2.20;;;;;;;;;;110326;1261;22888;-77
2023/08/01 11:53:39;;;;;;;9.90;2.30;;;;;;;;;;110316;1278;22207;-78
2023/08/01 11:56:09;;;;;;;6.60;2.20;;;;;;;;;;110248;1278;22395;-78
2023/08/01 11:58:47;;;;;;;6.50;2.00;;;;;;;;;;110304;1278;22154;-78
2023/08/01 12:01:34;;;;;;;8.10;2.50;;;;;;;;;;110479;1259;22816;-79
2023/08/01 12:04:04;;;;;;;7.20;2.10;;;;;;;;;;110347;1277;22045;-81
2023/08/01 12:06:51;;;;;;;11.40;2.60;;;;;;;;;;110364;1266;22825;-79
2023/08/01 12:09:36;;;;;;;5.30;2.00;;;;;;;;;;110164;1254;22353;-79
2023/08/01 12:12:04;;;;;;;7.30;1.70;;;;;;;;;;110243;1271;22753;-81
2023/08/01 12:14:30;;;;;;;12.30;2.30;;;;;;;;;;110352;1278;22814;-78
2023/08/01 12:16:57;;;;;;;7.60;2.30;;;;;;;;;;110376;1264;22744;-77
2023/08/01 12:19:30;;;;;;;10.00;2.30;;;;;;;;;;110231;1278;23173;-77
2023/08/01 12:22:09;;;;;;;7.00;2.00;;;;;;;;;;110661;1261;22118;-79
2023/08/01 12:24:37;;;;;;;9.20;1.80;;;;;;;;;;110312;1278;22109;-79
2023/08/01 12:27:13;;;;;;;5.50;1.90;;;;;;;;;;110220;1278;22142;-79
2023/08/01 12:29:42;;;;;;;8.40;2.20;;;;;;;;;;110344;1278;22396;-78
2023/08/01 12:32:21;;;;;;;6.80;2.00;;;;;;;;;;110361;1259;22160;-79
2023/08/01 12:34:48;;;;;;;6.30;2.00;;;;;;;;;;110360;1278;22089;-78
2023/08/01 12:37:15;;;;;;;7.90;2.10;;;;;;;;;;110232;1278;22121;-77
2023/08/01 12:39:42;;;;;;;10.20;2.00;;;;;;;;;;110374;1278;23037;-80
2023/08/01 12:42:09;;;;;;;5.60;1.80;;;;;;;;;;110615;1257;22125;-77
2023/08/01 12:44:36;;;;;;;7.50;2.10;;;;;;;;;;110346;1278;22115;-78
2023/08/01 12:47:04;;;;;;;6.20;2.20;;;;;;;;;;110355;1278;22107;-79
2023/08/01 12:49:31;;;;;;;6.50;2.20;;;;;;;;;;110329;1278;22114;-79
2023/08/01 12:52:02;;;;;;;10.00;2.20;;;;;;;;;;110566;1257;22120;-79
2023/08/01 12:54:35;;;;;;;6.10;2.00;;;;;;;;;;110348;1278;22760;-79
2023/08/01 12:57:03;;;;;;;6.70;1.90;;;;;;;;;;110145;1278;22125;-80
2023/08/01 12:59:36;;;;;;;7.90;1.90;;;;;;;;;;110376;1275;22113;-79
2023/08/01 13:02:08;;;;;;;6.80;2.00;;;;;;;;;;110537;1257;22154;-77
2023/08/01 13:04:35;;;;;;;6.70;2.20;;;;;;;;;;110352;1278;22147;-79
2023/08/01 13:07:02;;;;;;;6.60;2.00;;;;;;;;;;110303;1277;22859;-78
2023/08/01 13:09:32;;;;;;;8.80;1.90;;;;;;;;;;110343;1278;22871;-80
2023/08/01 13:11:59;;;;;;;7.70;1.60;;;;;;;;;;110491;1258;22133;-79
2023/08/01 13:14:26;;;;;;;6.60;2.10;;;;;;;;;;110350;1278;22096;-79
2023/08/01 13:16:53;;;;;;;8.00;2.00;;;;;;;;;;110305;1278;22178;-78
2023/08/01 13:19:20;;;;;;;5.10;2.10;;;;;;;;;;110359;1278;22348;-79
2023/08/01 13:21:47;;;;;;;5.90;1.50;;;;;;;;;;110480;1257;23002;-79
2023/08/01 13:24:14;;;;;;;7.30;2.00;;;;;;;;;;110382;1278;21991;-78
2023/08/01 13:26:41;;;;;;;5.40;1.80;;;;;;;;;;110354;1278;22099;-78
2023/08/01 13:29:08;;;;;;;5.40;1.40;;;;;;;;;;110369;1278;22095;-77
2023/08/01 13:31:35;;;;;;;6.90;1.20;;;;;;;;;;110449;1259;22970;-77
2023/08/01 13:34:02;;;;;;;4.40;1.20;;;;;;;;;;110383;1278;22107;-77
2023/08/01 13:36:29;;;;;;;2.60;1.30;;;;;;;;;;110375;1275;22302;-77
2023/08/01 13:38:56;;;;;;;4.40;1.60;;;;;;;;;;110307;1278;22110;-79
2023/08/01 13:41:23;;;;;;;12.90;2.00;;;;;;;;;;110278;1256;22136;-80
2023/08/01 13:43:51;;;;;;;5.50;1.90;;;;;;;;;;110177;1278;22113;-78
2023/08/01 13:46:21;;;;;;;7.40;2.00;;;;;;;;;;110192;1276;22195;-79
2023/08/01 13:48:49;;;;;;;9.50;2.10;;;;;;;;;;110303;1278;22578;-79
2023/08/01 13:51:20;;;;;;;7.70;2.10;;;;;;;;;;110309;1274;22856;-79
2023/08/01 13:53:48;;;;;;;4.90;1.90;;;;;;;;;;110246;1262;22121;-78
2023/08/01 13:56:19;;;;;;;4.60;1.90;;;;;;;;;;110287;1279;22110;-79
2023/08/01 13:58:47;;;;;;;3.90;1.80;;;;;;;;;;110308;1279;22076;-83
2023/08/01 14:01:18;;;;;;;4.50;1.90;;;;;;;;;;110315;1279;22089;-79
2023/08/01 14:03:46;;;;;;;4.60;1.80;;;;;;;;;;110315;1256;22146;-79
2023/08/01 14:06:14;;;;;;;5.00;2.00;;;;;;;;;;110148;1279;22153;-79
2023/08/01 14:08:45;;;;;;;4.30;1.80;;;;;;;;;;110306;1279;22124;-80
2023/08/01 14:11:12;;;;;;;4.80;1.60;;;;;;;;;;110198;1278;22982;-79
2023/08/01 14:13:39;;;;;;;3.70;1.90;;;;;;;;;;110172;1257;21997;-79
2023/08/01 14:16:07;;;;;;;5.50;1.90;;;;;;;;;;110314;1279;23184;-79
2023/08/01 14:18:35;;;;;;;5.10;1.90;;;;;;;;;;110295;1279;22093;-79
2023/08/01 14:21:03;;;;;;;4.80;1.80;;;;;;;;;;110302;1279;22126;-81
2023/08/01 14:23:31;;;;;;;6.00;2.10;;;;;;;;;;110250;1257;22120;-79
2023/08/01 14:25:59;;;;;;;4.80;1.80;;;;;;;;;;110111;1278;22134;-77
2023/08/01 14:28:27;;;;;;;5.40;1.60;;;;;;;;;;110299;1279;22140;-77
2023/08/01 14:30:55;;;;;;;5.10;2.00;;;;;;;;;;110297;1278;22125;-77
2023/08/01 14:33:22;;;;;;;4.20;1.80;;;;;;;;;;110295;1262;22143;-77
2023/08/01 14:35:50;;;;;;;8.50;1.80;;;;;;;;;;110280;1279;22256;-78
2023/08/01 14:38:20;;;;;;;6.50;1.70;;;;;;;;;;110261;1279;22142;-78
2023/08/01 14:40:48;;;;;;;5.60;1.90;;;;;;;;;;110203;1279;22101;-82
2023/08/01 14:43:16;;;;;;;7.20;2.60;;;;;;;;;;110226;1262;22108;-77
2023/08/01 14:45:45;;;;;;;4.70;1.90;;;;;;;;;;110200;1279;22107;-78
2023/08/01 14:48:14;;;;;;;4.80;2.30;;;;;;;;;;110152;1279;22118;-78